Time;durP1;ratioP1;P1;durP2;ratioP2;P2;SDS_P1;SDS_P2;PMS_P1;PMS_P2;Temp;Humidity;BMP_temperature;BMP_pressure;BME280_temperature;BME280_humidity;BME280_pressure;Samples;Min_cycle;Max_cycle;Signal;HPM_P1;HPM_P2
2022/12/10 00:00:32;;;;;;;;;68.50;53.75;;;;;2.62;72.22;100520.81;5054195;28;45593;-85
2022/12/10 00:02:58;;;;;;;;;70.50;55.75;;;;;2.79;72.28;100540.28;5033822;28;45391;-85
2022/12/10 00:05:23;;;;;;;;;74.25;58.75;;;;;2.90;72.28;100550.06;5030714;28;45475;-86
2022/12/10 00:07:49;;;;;;;;;73.50;56.50;;;;;2.82;72.17;100534.28;5050083;28;45354;-85
2022/12/10 00:10:14;;;;;;;;;66.50;54.25;;;;;2.81;71.83;100527.34;5041487;28;45624;-87
2022/12/10 00:12:39;;;;;;;;;75.00;57.00;;;;;2.88;72.10;100524.03;5037435;28;45450;-86
2022/12/10 00:15:05;;;;;;;;;76.25;57.00;;;;;2.92;72.33;100532.78;5043778;28;44864;-86
2022/12/10 00:17:31;;;;;;;;;64.75;52.00;;;;;3.06;72.36;100554.78;5039387;28;47518;-85
2022/12/10 00:19:56;;;;;;;;;70.75;55.00;;;;;3.08;72.15;100561.78;5073181;28;45378;-85
2022/12/10 00:22:21;;;;;;;;;77.00;59.50;;;;;2.95;72.09;100538.94;5024921;28;45538;-86
2022/12/10 00:24:47;;;;;;;;;65.25;51.75;;;;;3.16;72.16;100568.91;5023326;28;45276;-89
2022/12/10 00:27:14;;;;;;;;;72.75;56.00;;;;;3.09;72.13;100550.53;5027928;28;45450;-89
2022/12/10 00:29:40;;;;;;;;;65.50;54.75;;;;;3.15;71.96;100554.13;5044600;28;45280;-88
2022/12/10 00:32:05;;;;;;;;;72.75;53.75;;;;;3.29;71.77;100578.75;5034609;28;45588;-87
2022/12/10 00:34:31;;;;;;;;;69.25;54.50;;;;;3.27;72.34;100567.41;5016727;28;45366;-88
2022/12/10 00:36:56;;;;;;;;;70.25;56.50;;;;;3.29;71.84;100565.75;5044469;28;45393;-88
2022/12/10 00:39:22;;;;;;;;;71.50;56.50;;;;;3.37;71.71;100572.00;5041788;28;45641;-88
2022/12/10 00:41:47;;;;;;;;;76.25;58.75;;;;;3.38;71.40;100571.13;5025573;28;45336;-87
2022/12/10 00:44:14;;;;;;;;;68.50;52.50;;;;;3.31;71.71;100561.44;5026108;28;45458;-86
2022/12/10 00:46:39;;;;;;;;;64.75;55.00;;;;;3.38;71.77;100565.06;5036987;28;47259;-88
2022/12/10 00:49:05;;;;;;;;;67.00;52.00;;;;;3.48;72.02;100578.31;5034929;28;45515;-87
2022/12/10 00:51:31;;;;;;;;;66.25;53.50;;;;;3.42;71.55;100554.75;5030655;28;45668;-88
2022/12/10 00:53:58;;;;;;;;;59.00;48.00;;;;;3.53;71.94;100578.41;5041958;28;45896;-87
2022/12/10 00:56:27;;;;;;;;;66.75;52.25;;;;;3.52;71.62;100579.25;5058871;28;47531;-88
2022/12/10 00:58:52;;;;;;;;;66.25;54.50;;;;;3.36;71.53;100557.22;5042738;28;45429;-88
2022/12/10 01:01:31;;;;;;;;;61.00;49.25;;;;;3.45;71.50;100561.75;5022923;28;44679;-88
2022/12/10 01:03:59;;;;;;;;;61.25;49.00;;;;;3.50;71.45;100565.31;5023224;28;45593;-89
2022/12/10 01:06:28;;;;;;;;;61.00;49.25;;;;;3.49;71.20;100572.25;5020335;28;45296;-88
2022/12/10 01:08:57;;;;;;;;;63.75;48.00;;;;;3.39;71.04;100562.47;5061267;28;45402;-89
2022/12/10 01:11:26;;;;;;;;;66.75;52.50;;;;;3.40;70.93;100566.84;5037471;28;45280;-89
2022/12/10 01:13:52;;;;;;;;;60.00;46.50;;;;;3.41;71.40;100581.59;5034991;28;45470;-88
2022/12/10 01:16:19;;;;;;;;;68.00;53.75;;;;;3.39;71.97;100575.47;5031386;28;45401;-89
2022/12/10 01:18:45;;;;;;;;;62.00;49.25;;;;;3.31;71.64;100559.72;5056524;28;45861;-88
2022/12/10 01:21:16;;;;;;;;;55.75;46.50;;;;;3.26;71.62;100563.94;5022912;28;45371;-86
2022/12/10 01:23:44;;;;;;;;;60.75;45.50;;;;;3.22;71.20;100569.91;5038241;28;45453;-89
2022/12/10 01:26:13;;;;;;;;;64.50;47.75;;;;;3.28;71.18;100588.25;5042646;28;47442;-89
2022/12/10 01:28:40;;;;;;;;;59.00;47.75;;;;;3.29;72.02;100594.34;5028242;28;45470;-89
2022/12/10 01:31:26;;;;;;;;;62.25;45.50;;;;;3.29;72.01;100590.03;5041399;28;45415;-87
2022/12/10 01:33:52;;;;;;;;;60.75;46.75;;;;;3.21;71.80;100588.09;5015126;28;46296;-89
2022/12/10 01:36:21;;;;;;;;;64.00;49.75;;;;;3.22;71.82;100584.63;5038476;28;48484;-88
2022/12/10 01:38:47;;;;;;;;;56.75;46.75;;;;;3.33;72.10;100605.69;5029403;28;45370;-89
2022/12/10 01:41:17;;;;;;;;;61.00;46.25;;;;;3.26;71.48;100602.97;5026313;28;45219;-88
2022/12/10 01:43:50;;;;;;;;;58.00;45.75;;;;;3.28;71.86;100608.19;5032700;28;45485;-87
2022/12/10 01:46:16;;;;;;;;;54.00;44.25;;;;;3.22;71.91;100616.72;5033619;28;47311;-89
2022/12/10 01:48:42;;;;;;;;;53.50;42.25;;;;;3.29;71.45;100617.78;5029096;28;45990;-88
2022/12/10 01:51:08;;;;;;;;;61.75;50.00;;;;;3.13;71.55;100600.91;5025234;28;45285;-89
2022/12/10 01:53:33;;;;;;;;;61.00;45.00;;;;;3.17;72.16;100599.25;5029000;28;45582;-89
2022/12/10 01:55:59;;;;;;;;;60.75;46.50;;;;;3.24;72.15;100611.56;5024648;28;46957;-88
2022/12/10 01:58:24;;;;;;;;;59.25;45.75;;;;;3.28;71.93;100621.19;5029062;28;45551;-88
2022/12/10 02:01:08;;;;;;;;;61.25;45.75;;;;;3.33;72.48;100630.00;5023751;28;45538;-88
2022/12/10 02:03:45;;;;;;;;;60.50;43.25;;;;;3.34;72.25;100631.75;5023051;28;45559;-88
2022/12/10 02:06:32;;;;;;;;;57.75;46.75;;;;;3.39;71.76;100634.47;5019932;28;47561;-88
2022/12/10 02:09:13;;;;;;;;;56.00;44.25;;;;;3.36;72.26;100632.66;5034442;28;45240;-88
2022/12/10 02:11:52;;;;;;;;;67.50;51.50;;;;;3.30;71.95;100624.72;5019783;28;45425;-88
2022/12/10 02:14:33;;;;;;;;;54.00;42.75;;;;;3.30;72.17;100627.31;5019317;28;45244;-89
2022/12/10 02:17:05;;;;;;;;;57.00;45.50;;;;;3.41;71.81;100646.66;5019568;28;47582;-89
2022/12/10 02:19:57;;;;;;;;;70.75;55.50;;;;;3.45;71.98;100647.63;5007119;28;45511;-89
2022/12/10 02:22:28;;;;;;;;;60.00;48.50;;;;;3.32;72.21;100625.66;5037879;28;45256;-89
2022/12/10 02:24:55;;;;;;;;;55.75;46.00;;;;;3.38;72.21;100640.50;5027262;28;45486;-88
2022/12/10 02:27:35;;;;;;;;;57.00;44.75;;;;;3.41;72.30;100638.84;5020692;28;46411;-87
2022/12/10 02:30:01;;;;;;;;;57.25;43.50;;;;;3.33;72.56;100608.31;5018840;28;45379;-88
2022/12/10 02:32:34;;;;;;;;;57.75;45.50;;;;;3.52;72.08;100655.59;5026603;28;45406;-87
2022/12/10 02:35:05;;;;;;;;;51.50;42.75;;;;;3.38;72.24;100619.69;5038172;28;45315;-87
2022/12/10 02:37:35;;;;;;;;;50.00;41.75;;;;;3.53;72.56;100654.78;5023441;28;48287;-87
2022/12/10 02:40:11;;;;;;;;;51.50;42.00;;;;;3.43;72.16;100639.78;5020504;28;45406;-87
2022/12/10 02:42:40;;;;;;;;;55.75;43.75;;;;;3.46;71.99;100638.97;5030369;28;45429;-87
2022/12/10 02:45:08;;;;;;;;;57.00;42.50;;;;;3.54;71.91;100653.03;5021168;28;45514;-86
2022/12/10 02:47:34;;;;;;;;;52.50;41.75;;;;;3.54;71.99;100645.22;5019022;28;47692;-87
2022/12/10 02:50:00;;;;;;;;;55.00;43.00;;;;;3.54;71.98;100642.63;5033287;28;44622;-87
2022/12/10 02:52:25;;;;;;;;;48.75;40.75;;;;;3.61;72.19;100647.16;5031454;28;45361;-87
2022/12/10 02:54:52;;;;;;;;;54.00;42.00;;;;;3.64;72.25;100655.00;5019532;28;46224;-87
2022/12/10 02:57:40;;;;;;;;;55.25;42.50;;;;;3.67;72.31;100652.47;5020119;28;45457;-87
2022/12/10 03:00:18;;;;;;;;;53.25;42.00;;;;;3.63;71.81;100636.75;5009056;28;45311;-88
2022/12/10 03:03:02;;;;;;;;;51.25;41.50;;;;;3.70;72.13;100649.06;5026182;28;45361;-87
2022/12/10 03:05:59;;;;;;;;;44.75;37.75;;;;;3.69;71.87;100655.13;5020070;28;45300;-88
2022/12/10 03:08:34;;;;;;;;;56.50;45.75;;;;;3.70;71.60;100651.66;5018484;28;47006;-87
2022/12/10 03:11:10;;;;;;;;;46.50;40.75;;;;;3.65;71.92;100646.34;5020771;28;45525;-87
2022/12/10 03:13:42;;;;;;;;;53.75;42.75;;;;;3.65;72.22;100646.34;5018458;28;45364;-87
2022/12/10 03:16:10;;;;;;;;;49.50;38.25;;;;;3.51;71.98;100633.03;5005434;28;45523;-88
2022/12/10 03:18:37;;;;;;;;;45.25;37.75;;;;;3.63;71.84;100653.25;5031869;28;47801;-87
2022/12/10 03:21:05;;;;;;;;;52.75;40.25;;;;;3.59;71.69;100645.34;5018762;28;45761;-88
2022/12/10 03:23:34;;;;;;;;;50.50;41.00;;;;;3.63;72.13;100654.97;5018510;28;45210;-87
2022/12/10 03:26:01;;;;;;;;;53.50;43.25;;;;;3.51;72.24;100642.56;5026632;28;45257;-88
2022/12/10 03:28:26;;;;;;;;;45.25;38.50;;;;;3.65;71.87;100667.19;5052939;28;46566;-87
2022/12/10 03:30:55;;;;;;;;;44.50;37.75;;;;;3.59;71.68;100651.44;5019612;28;45229;-88
2022/12/10 03:33:20;;;;;;;;;43.25;38.75;;;;;3.66;72.02;100670.66;5031379;28;45335;-88
2022/12/10 03:35:46;;;;;;;;;43.25;38.25;;;;;3.64;71.48;100656.75;5027266;28;45234;-87
2022/12/10 03:38:13;;;;;;;;;36.00;30.50;;;;;3.67;71.92;100665.50;5024327;28;45520;-88
2022/12/10 03:40:40;;;;;;;;;41.25;34.00;;;;;3.72;71.68;100670.81;5038537;28;45193;-86
2022/12/10 03:43:05;;;;;;;;;46.50;39.00;;;;;3.66;71.98;100661.16;5041337;28;45367;-87
2022/12/10 03:45:30;;;;;;;;;46.00;38.75;;;;;3.66;71.38;100661.16;5024293;28;45943;-87
2022/12/10 03:47:56;;;;;;;;;42.25;37.75;;;;;3.67;71.83;100660.28;5030773;28;46899;-88
2022/12/10 03:50:21;;;;;;;;;40.75;37.25;;;;;3.67;71.63;100654.22;5037869;28;45433;-87
2022/12/10 03:52:47;;;;;;;;;46.00;39.50;;;;;3.78;71.56;100670.06;5036427;28;45398;-88
2022/12/10 03:55:12;;;;;;;;;49.75;39.00;;;;;3.71;71.42;100669.03;5018462;28;45855;-87
2022/12/10 03:57:37;;;;;;;;;42.75;36.25;;;;;3.69;71.43;100666.41;5034025;28;46724;-87
2022/12/10 04:00:05;;;;;;;;;43.25;39.00;;;;;3.77;71.96;100679.63;5038490;28;45638;-87
2022/12/10 04:02:30;;;;;;;;;44.75;39.25;;;;;3.72;71.86;100673.41;5021188;28;45275;-88
2022/12/10 04:04:56;;;;;;;;;39.75;34.75;;;;;3.71;71.52;100676.84;5021122;28;45255;-87
2022/12/10 04:07:21;;;;;;;;;38.50;30.25;;;;;3.81;71.35;100685.75;5034408;28;47227;-87
2022/12/10 04:09:47;;;;;;;;;41.00;36.25;;;;;3.77;71.44;100679.63;5023728;28;45379;-88
2022/12/10 04:12:12;;;;;;;;;40.00;30.75;;;;;3.79;71.55;100677.91;5034627;28;45361;-87
2022/12/10 04:17:22;;;;;;;;;43.25;34.00;;;;;3.83;71.47;100677.13;5022322;28;45880;-88
2022/12/10 04:19:47;;;;;;;;;38.50;33.50;;;;;3.80;71.12;100671.88;5032019;28;46164;-87
2022/12/10 04:27:40;;;;;;;;;35.00;30.25;;;;;3.91;71.57;100683.41;5031053;28;45805;-87
2022/12/10 04:30:10;;;;;;;;;45.50;32.25;;;;;3.85;70.88;100670.25;5026262;28;45374;-87
2022/12/10 04:32:35;;;;;;;;;44.00;36.75;;;;;3.92;71.08;100671.25;5030525;28;45336;-87
2022/12/10 04:35:00;;;;;;;;;30.75;22.75;;;;;3.96;70.84;100686.09;5040750;28;45443;-87
2022/12/10 04:37:27;;;;;;;;;43.25;38.00;;;;;3.90;70.67;100676.44;5020320;28;45570;-86
2022/12/10 04:39:53;;;;;;;;;36.00;32.25;;;;;3.96;70.98;100680.91;5020813;28;46012;-87
2022/12/10 04:42:21;;;;;;;;;35.25;32.00;;;;;3.94;70.55;100679.97;5022805;28;45381;-87
2022/12/10 04:44:46;;;;;;;;;47.50;35.50;;;;;3.95;71.04;100684.31;5029825;28;45587;-87
2022/12/10 04:47:12;;;;;;;;;31.00;27.25;;;;;3.89;71.50;100684.19;5040634;28;48209;-87
2022/12/10 04:49:38;;;;;;;;;32.00;29.75;;;;;3.87;70.61;100689.38;5024853;28;45246;-87
2022/12/10 04:52:05;;;;;;;;;33.25;29.50;;;;;3.86;70.96;100685.00;5020528;28;45254;-87
2022/12/10 04:54:31;;;;;;;;;36.00;31.25;;;;;3.94;70.86;100701.69;5025518;28;45216;-87
2022/12/10 04:56:56;;;;;;;;;36.25;30.75;;;;;3.78;71.02;100686.56;5029858;28;47999;-87
2022/12/10 04:59:22;;;;;;;;;43.25;34.75;;;;;3.83;71.08;100697.97;5022874;28;45367;-88
2022/12/10 05:01:47;;;;;;;;;31.25;29.50;;;;;3.89;71.04;100710.25;5020813;28;45417;-87
2022/12/10 05:04:16;;;;;;;;;35.00;32.50;;;;;3.76;71.05;100688.25;5024128;28;45673;-88
2022/12/10 05:06:42;;;;;;;;;35.50;35.25;;;;;3.85;70.86;100705.78;5044883;28;47200;-89
2022/12/10 05:09:07;;;;;;;;;40.25;38.50;;;;;3.71;70.79;100682.06;5020138;28;45331;-88
2022/12/10 05:11:34;;;;;;;;;35.75;26.00;;;;;3.82;70.73;100704.00;5020098;28;45249;-88
2022/12/10 05:13:59;;;;;;;;;32.25;27.00;;;;;3.75;71.04;100686.50;5019970;28;45293;-89
2022/12/10 05:16:27;;;;;;;;;38.50;32.50;;;;;3.68;71.10;100672.44;5019210;28;47820;-88
2022/12/10 05:18:54;;;;;;;;;36.00;33.25;;;;;3.71;71.23;100687.25;5036495;28;45335;-89
2022/12/10 05:21:21;;;;;;;;;39.25;34.75;;;;;3.78;71.09;100698.72;5043768;28;45413;-87
2022/12/10 05:23:49;;;;;;;;;36.00;33.75;;;;;3.74;70.84;100692.53;5050198;28;45402;-87
2022/12/10 05:26:24;;;;;;;;;39.25;33.00;;;;;3.82;71.04;100708.34;5041203;28;46361;-87
2022/12/10 05:28:53;;;;;;;;;29.75;26.50;;;;;3.75;71.09;100699.53;5056316;28;45263;-87
2022/12/10 05:31:20;;;;;;;;;34.25;31.75;;;;;3.82;71.41;100717.00;5027877;28;45448;-87
2022/12/10 05:33:46;;;;;;;;;35.00;33.25;;;;;3.83;71.16;100720.53;5028996;28;45503;-88
2022/12/10 05:36:14;;;;;;;;;34.75;27.50;;;;;3.84;71.42;100711.84;5041895;28;48099;-87
2022/12/10 05:38:40;;;;;;;;;38.25;33.50;;;;;3.77;70.99;100713.47;5023594;28;45287;-88
2022/12/10 05:41:10;;;;;;;;;35.50;31.25;;;;;3.74;71.16;100711.66;5036370;28;45205;-87
2022/12/10 05:43:36;;;;;;;;;36.00;30.75;;;;;3.72;71.17;100710.75;5028122;28;45374;-88
2022/12/10 05:46:03;;;;;;;;;37.50;31.00;;;;;3.75;70.86;100710.81;5039833;28;47266;-88
2022/12/10 05:48:30;;;;;;;;;37.25;27.00;;;;;3.79;70.93;100721.28;5035677;28;45637;-88
2022/12/10 05:50:56;;;;;;;;;33.75;27.75;;;;;3.84;70.88;100737.91;5022948;28;45397;-88
2022/12/10 05:53:21;;;;;;;;;34.25;30.00;;;;;3.82;71.28;100730.03;5022970;28;45408;-88
2022/12/10 05:55:47;;;;;;;;;37.25;29.25;;;;;3.74;70.94;100718.56;5035895;28;46903;-88
2022/12/10 05:58:13;;;;;;;;;23.25;21.25;;;;;3.76;70.83;100722.09;5023369;28;45897;-88
2022/12/10 06:00:40;;;;;;;;;24.75;22.25;;;;;3.86;70.25;100733.63;5054556;28;45352;-89
2022/12/10 06:03:06;;;;;;;;;28.50;24.25;;;;;3.85;70.69;100726.63;5042926;28;45342;-87
2022/12/10 06:05:39;;;;;;;;;31.00;27.50;;;;;3.86;70.20;100736.22;5052887;28;47568;-88
2022/12/10 06:08:05;;;;;;;;;30.00;25.25;;;;;3.91;70.41;100738.09;5027623;28;45454;-87
2022/12/10 06:10:33;;;;;;;;;30.25;27.50;;;;;3.90;70.56;100728.53;5022472;28;45546;-88
2022/12/10 06:12:58;;;;;;;;;32.75;27.75;;;;;3.87;70.37;100724.94;5030173;28;45305;-89
2022/12/10 06:15:24;;;;;;;;;36.00;31.25;;;;;3.98;70.70;100745.19;5027768;28;47013;-88
2022/12/10 06:17:49;;;;;;;;;37.75;29.75;;;;;3.86;70.70;100724.06;5030575;28;45676;-89
2022/12/10 06:20:14;;;;;;;;;36.75;29.50;;;;;3.93;70.18;100733.78;5041337;28;45288;-87
2022/12/10 06:22:40;;;;;;;;;41.00;31.50;;;;;4.01;70.14;100752.22;5048399;28;45189;-90
2022/12/10 06:25:06;;;;;;;;;38.25;33.25;;;;;3.99;70.79;100753.88;5042520;28;48098;-89
2022/12/10 06:27:31;;;;;;;;;38.50;35.75;;;;;3.86;70.45;100739.69;5032893;28;45339;-86
2022/12/10 06:29:57;;;;;;;;;33.25;29.50;;;;;3.87;70.24;100737.97;5035451;28;45269;-84
2022/12/10 06:32:22;;;;;;;;;36.25;26.50;;;;;3.88;70.22;100735.41;5030121;28;45518;-83
2022/12/10 06:34:47;;;;;;;;;32.00;27.50;;;;;4.03;70.37;100758.31;5046573;28;45445;-83
2022/12/10 06:37:13;;;;;;;;;33.75;26.25;;;;;4.04;69.94;100759.22;5050473;28;45306;-84
2022/12/10 06:39:38;;;;;;;;;31.75;27.25;;;;;4.01;70.04;100753.91;5041571;28;45321;-87
2022/12/10 06:42:05;;;;;;;;;26.25;26.25;;;;;4.08;70.07;100774.06;5051835;28;45425;-84
2022/12/10 06:44:30;;;;;;;;;33.50;26.75;;;;;4.02;69.75;100763.50;5046061;28;46306;-84
2022/12/10 06:46:56;;;;;;;;;28.25;24.00;;;;;4.05;69.94;100774.84;5048295;28;45314;-84
2022/12/10 06:49:21;;;;;;;;;20.25;17.75;;;;;4.00;70.05;100765.19;5046761;28;45237;-84
2022/12/10 06:51:47;;;;;;;;;27.00;24.75;;;;;4.00;69.64;100773.00;5033562;28;45522;-84
2022/12/10 06:54:13;;;;;;;;;29.50;19.75;;;;;4.02;69.72;100768.72;5034792;28;47120;-84
2022/12/10 06:56:38;;;;;;;;;20.25;19.75;;;;;3.86;69.43;100746.63;5030175;28;45329;-85
2022/12/10 06:59:06;;;;;;;;;24.25;23.00;;;;;3.95;69.58;100765.94;5046421;28;45225;-84
2022/12/10 07:01:31;;;;;;;;;23.75;19.75;;;;;3.93;69.43;100774.59;5046624;28;45561;-84
2022/12/10 07:03:57;;;;;;;;;18.50;18.50;;;;;3.95;69.56;100780.69;5023871;28;47354;-84
2022/12/10 07:06:25;;;;;;;;;25.25;20.50;;;;;3.93;69.29;100790.22;5022518;28;45677;-90
2022/12/10 07:08:51;;;;;;;;;22.25;18.75;;;;;3.93;69.37;100793.69;5022435;28;45464;-89
2022/12/10 07:11:20;;;;;;;;;26.50;23.25;;;;;3.90;69.48;100782.31;5028848;28;45454;-87
2022/12/10 07:13:45;;;;;;;;;22.25;18.25;;;;;3.89;69.72;100781.44;5042083;28;47210;-89
2022/12/10 07:16:23;;;;;;;;;25.00;24.00;;;;;3.96;69.28;100791.16;5030377;28;45715;-89
2022/12/10 07:18:50;;;;;;;;;24.25;21.50;;;;;3.96;69.02;100796.38;5025876;28;45458;-85
2022/12/10 07:21:24;;;;;;;;;21.25;17.75;;;;;4.01;69.81;100808.59;5030889;28;45396;-84
2022/12/10 07:23:53;;;;;;;;;25.00;20.50;;;;;3.93;69.38;100798.91;5027488;28;48018;-83
2022/12/10 07:26:18;;;;;;;;;20.00;14.25;;;;;4.02;69.43;100818.19;5048342;28;45227;-84
2022/12/10 07:28:43;;;;;;;;;24.25;19.75;;;;;4.02;69.74;100807.78;5034463;28;45747;-84
2022/12/10 07:31:09;;;;;;;;;30.00;23.00;;;;;4.05;69.38;100816.53;5032761;28;45221;-84
2022/12/10 07:33:36;;;;;;;;;22.25;16.00;;;;;3.93;69.64;100798.91;5027502;28;47431;-84
2022/12/10 07:36:10;;;;;;;;;23.00;23.00;;;;;3.95;68.91;100802.41;5047587;28;45395;-84
2022/12/10 07:38:35;;;;;;;;;30.50;27.00;;;;;4.00;69.83;100814.66;5028501;28;45324;-84
2022/12/10 07:41:05;;;;;;;;;23.25;22.00;;;;;3.93;69.67;100798.03;5049914;28;45165;-84
2022/12/10 07:43:33;;;;;;;;;18.00;17.25;;;;;4.06;69.30;100828.72;5029485;28;45404;-85
2022/12/10 07:46:23;;;;;;;;;22.00;21.00;;;;;4.08;69.53;100826.16;5042011;28;45324;-84
2022/12/10 07:48:49;;;;;;;;;26.25;23.75;;;;;4.00;69.35;100809.47;5033144;28;45335;-85
2022/12/10 07:51:17;;;;;;;;;9.50;6.75;;;;;4.11;69.42;100829.69;5055720;28;45434;-84
2022/12/10 07:53:43;;;;;;;;;29.00;24.25;;;;;4.03;69.06;100822.56;5035376;28;47095;-84
2022/12/10 07:56:09;;;;;;;;;32.50;24.50;;;;;4.13;69.56;100835.84;5030755;28;45306;-84
2022/12/10 07:58:35;;;;;;;;;30.50;25.50;;;;;4.02;69.24;100829.50;5033242;28;45410;-84
2022/12/10 08:01:09;;;;;;;;;25.00;23.50;;;;;4.10;69.31;100832.28;5046707;28;45407;-84
2022/12/10 08:03:34;;;;;;;;;23.00;20.75;;;;;4.10;69.17;100837.50;5031761;28;47308;-85
2022/12/10 08:06:02;;;;;;;;;23.75;20.00;;;;;4.02;69.19;100826.00;5026487;28;45262;-84
2022/12/10 08:08:27;;;;;;;;;28.75;25.50;;;;;4.14;69.04;100842.81;5036335;28;45431;-83
2022/12/10 08:10:54;;;;;;;;;24.25;19.50;;;;;4.14;69.45;100836.72;5043481;28;45417;-88
2022/12/10 08:13:19;;;;;;;;;28.00;23.50;;;;;4.26;69.17;100851.78;5024245;28;48318;-89
2022/12/10 08:15:45;;;;;;;;;20.00;14.50;;;;;4.22;69.25;100847.31;5027873;28;45360;-87
2022/12/10 08:18:10;;;;;;;;;25.50;21.25;;;;;4.14;69.17;100828.88;5044019;28;45269;-87
2022/12/10 08:20:35;;;;;;;;;25.00;23.00;;;;;4.27;68.91;100851.78;5041221;28;45528;-85
2022/12/10 08:23:01;;;;;;;;;21.25;19.75;;;;;4.22;68.76;100849.91;5034106;28;47104;-89
2022/12/10 08:25:26;;;;;;;;;27.50;24.00;;;;;4.29;68.38;100857.91;5026862;28;45325;-86
2022/12/10 08:27:52;;;;;;;;;25.75;22.75;;;;;4.37;68.84;100872.00;5034139;28;45357;-85
2022/12/10 08:30:17;;;;;;;;;20.25;18.00;;;;;4.31;68.60;100871.00;5030155;28;45409;-84
2022/12/10 08:32:42;;;;;;;;;20.00;16.25;;;;;4.39;68.90;100878.16;5051614;28;45284;-84
2022/12/10 08:35:08;;;;;;;;;26.00;23.25;;;;;4.35;68.73;100873.69;5054572;28;45256;-84
2022/12/10 08:37:33;;;;;;;;;33.25;20.50;;;;;4.40;68.79;100890.31;5021292;28;45441;-85
2022/12/10 08:39:59;;;;;;;;;22.75;19.25;;;;;4.42;68.30;100898.19;5045599;28;45386;-87
2022/12/10 08:42:24;;;;;;;;;22.75;18.00;;;;;4.30;68.44;100877.03;5043391;28;47192;-85
2022/12/10 08:44:50;;;;;;;;;21.75;21.50;;;;;4.42;68.24;100890.38;5026611;28;45267;-86
2022/12/10 08:47:15;;;;;;;;;26.75;20.25;;;;;4.30;67.93;100874.44;5052408;28;45442;-86
2022/12/10 08:49:41;;;;;;;;;27.25;19.75;;;;;4.38;68.26;100889.44;5025263;28;45364;-85
2022/12/10 08:52:07;;;;;;;;;21.50;18.25;;;;;4.34;67.92;100878.88;5051966;28;45412;-85
2022/12/10 08:54:32;;;;;;;;;32.75;22.00;;;;;4.41;67.97;100894.72;5029809;28;45447;-86
2022/12/10 08:56:57;;;;;;;;;22.25;19.50;;;;;4.30;67.77;100872.69;5051222;28;45674;-84
2022/12/10 08:59:23;;;;;;;;;25.25;20.00;;;;;4.37;67.72;100885.03;5055034;28;45275;-85
2022/12/10 09:01:48;;;;;;;;;26.50;23.50;;;;;4.44;67.57;100901.72;5033773;28;48279;-85
2022/12/10 09:04:15;;;;;;;;;28.25;23.25;;;;;4.41;67.63;100897.31;5025734;28;45661;-85
2022/12/10 09:06:40;;;;;;;;;25.50;22.25;;;;;4.33;67.44;100885.84;5032054;28;45451;-86
2022/12/10 09:09:06;;;;;;;;;23.50;22.00;;;;;4.35;67.97;100889.34;5041006;28;45752;-87
2022/12/10 09:11:33;;;;;;;;;28.00;24.25;;;;;4.52;67.78;100918.44;5051089;28;46504;-88
2022/12/10 09:13:59;;;;;;;;;34.50;27.00;;;;;4.55;67.97;100921.09;5045069;28;45264;-90
2022/12/10 09:16:34;;;;;;;;;35.75;28.75;;;;;4.39;67.61;100883.38;5032296;28;45439;-92
2022/12/10 09:19:00;;;;;;;;;30.50;27.00;;;;;4.60;67.90;100919.47;5041405;28;45745;-92
2022/12/10 09:21:26;;;;;;;;;33.75;26.50;;;;;4.63;67.72;100922.16;5043511;28;46276;-92
2022/12/10 09:23:52;;;;;;;;;29.75;24.75;;;;;4.44;67.63;100888.69;5031448;28;46002;-87
2022/12/10 09:26:19;;;;;;;;;37.00;25.25;;;;;4.49;67.55;100887.06;5022489;28;45514;-91
2022/12/10 09:28:45;;;;;;;;;33.50;29.00;;;;;4.61;67.66;100908.19;5022308;28;45498;-87
2022/12/10 09:31:12;;;;;;;;;25.25;20.75;;;;;4.76;67.40;100918.13;5034137;28;47313;-87
2022/12/10 09:33:40;;;;;;;;;34.00;28.50;;;;;4.66;67.72;100895.28;5022769;28;45407;-87
2022/12/10 09:36:07;;;;;;;;;31.00;25.00;;;;;4.72;67.44;100897.13;5021853;28;45501;-86
2022/12/10 09:38:34;;;;;;;;;33.50;24.75;;;;;4.89;67.52;100929.69;5037093;28;45495;-88
2022/12/10 09:41:05;;;;;;;;;23.25;17.75;;;;;4.91;67.00;100925.38;5031930;28;46228;-88
2022/12/10 09:43:39;;;;;;;;;33.00;24.25;;;;;4.93;67.16;100926.31;5022409;28;45448;-87
2022/12/10 09:46:39;;;;;;;;;27.00;22.00;;;;;4.93;66.69;100925.44;5014976;28;45421;-88
2022/12/10 09:49:27;;;;;;;;;27.75;17.25;;;;;4.84;66.31;100906.13;5027884;28;45257;-89
2022/12/10 09:52:00;;;;;;;;;29.00;24.50;;;;;4.85;66.93;100907.00;5032315;28;45439;-88
2022/12/10 09:54:43;;;;;;;;;28.75;24.25;;;;;4.97;66.62;100917.72;5024155;28;45287;-89
2022/12/10 09:57:20;;;;;;;;;31.50;26.25;;;;;5.02;66.64;100923.00;5040469;28;45393;-88
2022/12/10 09:59:49;;;;;;;;;33.25;28.25;;;;;5.15;66.65;100931.97;5016733;28;45648;-89
2022/12/10 10:02:31;;;;;;;;;36.75;30.25;;;;;5.05;66.65;100900.50;5020515;28;48127;-90
2022/12/10 10:05:14;;;;;;;;;28.25;23.75;;;;;5.28;66.36;100934.88;5022463;28;45623;-86
2022/12/10 10:07:46;;;;;;;;;37.50;30.25;;;;;5.25;66.13;100916.56;5029906;28;45545;-90
2022/12/10 10:10:21;;;;;;;;;32.50;27.75;;;;;5.33;66.27;100931.50;5030365;28;45506;-88
2022/12/10 10:12:47;;;;;;;;;33.50;27.50;;;;;5.30;66.38;100924.50;5026233;28;45680;-89
2022/12/10 10:15:16;;;;;;;;;29.50;26.25;;;;;5.21;66.28;100895.56;5040622;28;45508;-91
2022/12/10 10:17:46;;;;;;;;;34.75;28.75;;;;;5.43;66.39;100929.09;5050104;28;45287;-92
2022/12/10 10:20:13;;;;;;;;;38.00;31.50;;;;;5.43;66.15;100933.47;5056046;28;45658;-86
2022/12/10 10:22:40;;;;;;;;;30.75;23.25;;;;;5.42;66.06;100934.28;5055732;28;47399;-89
2022/12/10 10:25:15;;;;;;;;;38.50;29.75;;;;;5.40;65.93;100926.44;5042841;28;45351;-89
2022/12/10 10:27:41;;;;;;;;;29.75;27.25;;;;;5.49;66.09;100934.44;5026946;28;45567;-87
2022/12/10 10:30:17;;;;;;;;;29.00;27.75;;;;;5.50;65.71;100922.25;5038574;28;45333;-89
2022/12/10 10:32:45;;;;;;;;;26.00;20.75;;;;;5.55;65.53;100927.59;5001046;28;47795;-88
2022/12/10 10:35:31;;;;;;;;;29.75;25.50;;;;;5.55;65.62;100928.47;5035770;28;45925;-91
2022/12/10 10:38:04;;;;;;;;;26.25;24.25;;;;;5.51;65.44;100919.69;5050753;28;45494;-86
2022/12/10 10:40:46;;;;;;;;;31.50;28.50;;;;;5.48;65.40;100897.84;5006656;28;45295;-91
2022/12/10 10:43:23;;;;;;;;;27.75;22.50;;;;;5.71;65.15;100930.50;5036690;28;47932;-83
2022/12/10 10:46:04;;;;;;;;;29.75;27.75;;;;;5.68;65.11;100911.31;5019757;28;45720;-87
2022/12/10 10:48:30;;;;;;;;;39.25;28.25;;;;;6.02;65.21;100925.91;5010101;28;45547;-90
2022/12/10 10:51:06;;;;;;;;;32.00;28.00;;;;;6.07;64.23;100912.91;5039044;28;45443;-90
2022/12/10 10:53:48;;;;;;;;;26.75;22.75;;;;;6.24;64.09;100945.44;5036444;28;47950;-91
2022/12/10 10:56:16;;;;;;;;;79.25;59.75;;;;;6.30;63.97;100936.81;5034716;28;45989;-90
2022/12/10 10:58:54;;;;;;;;;31.75;29.00;;;;;6.52;63.81;100933.72;5029706;28;45386;-90
2022/12/10 11:01:20;;;;;;;;;26.25;21.75;;;;;6.85;63.56;100954.28;5028222;28;45912;-90
2022/12/10 11:03:49;;;;;;;;;25.75;23.00;;;;;6.85;63.29;100903.69;5021171;28;48244;-89
2022/12/10 11:06:16;;;;;;;;;27.75;20.75;;;;;7.02;62.44;100928.31;5034320;28;44817;-89
2022/12/10 11:08:44;;;;;;;;;28.75;24.75;;;;;6.96;62.32;100924.75;5036072;28;45750;-88
2022/12/10 11:11:28;;;;;;;;;28.25;24.00;;;;;6.77;62.12;100908.78;5018179;28;45516;-87
2022/12/10 11:13:53;;;;;;;;;29.50;23.50;;;;;6.68;62.11;100892.06;5021784;28;45712;-83
2022/12/10 11:16:22;;;;;;;;;27.50;26.25;;;;;6.89;62.22;100908.06;5035332;28;45368;-86
2022/12/10 11:19:20;;;;;;;;;29.50;23.75;;;;;7.35;62.14;100928.75;5030942;28;45394;-87
2022/12/10 11:21:45;;;;;;;;;27.00;25.00;;;;;7.33;61.58;100896.44;5039925;28;45700;-88
2022/12/10 11:24:11;;;;;;;;;29.75;25.75;;;;;7.82;61.58;100918.81;5044890;28;45500;-92
2022/12/10 11:27:02;;;;;;;;;22.75;19.00;;;;;7.98;60.84;100921.59;5041405;28;44872;-90
2022/12/10 11:30:03;;;;;;;;;;;;;;;;;;;;;
2022/12/10 11:33:09;;;;;;;;;29.50;23.75;;;;;8.29;60.66;100917.50;5018908;28;71688;-91
2022/12/10 11:36:10;;;;;;;;;;;;;;;;;;;;;
2022/12/10 11:39:20;;;;;;;;;;;;;;;;;;;;;